Time;durP1;ratioP1;P1;durP2;ratioP2;P2;SDS_P1;SDS_P2;PMS_P1;PMS_P2;Temp;Humidity;BMP_temperature;BMP_pressure;BME280_temperature;BME280_humidity;BME280_pressure;Samples;Min_cycle;Max_cycle;Signal;HPM_P1;HPM_P2
2024/03/31 00:02:21;;;;;;;;;;;;;;;;;;4450054;32;19948;-76
2024/03/31 00:04:46;;;;;;;;;;;;;;;;;;4437152;32;20004;-77
2024/03/31 00:07:11;;;;;;;;;;;;;;;;;;4436170;32;19937;-75
2024/03/31 00:09:36;;;;;;;;;;;;;;;;;;4445995;32;19950;-75
2024/03/31 00:12:01;;;;;;;;;;;;;;;;;;4437400;32;19940;-76
2024/03/31 00:14:26;;;;;;;;;;;;;;;;;;4450190;32;19974;-78
2024/03/31 00:16:52;;;;;;;;;;;;;;;;;;4452296;32;20119;-79
2024/03/31 00:19:17;;;;;;;;;;;;;;;;;;4449754;32;19940;-77
2024/03/31 00:21:42;;;;;;;;;;;;;;;;;;4442241;32;19952;-77
2024/03/31 00:24:07;;;;;;;;;;;;;;;;;;4444827;32;19960;-79
2024/03/31 00:26:32;;;;;;;;;;;;;;;;;;4437264;32;20243;-77
2024/03/31 00:28:57;;;;;;;;;;;;;;;;;;4443251;32;19996;-78
2024/03/31 00:31:24;;;;;;;;;;;;;;;;;;4450440;32;19951;-78
2024/03/31 00:33:49;;;;;;;;;;;;;;;;;;4440148;32;19937;-75
2024/03/31 00:36:14;;;;;;;;;;;;;;;;;;4435322;32;19946;-76
2024/03/31 00:38:39;;;;;;;;;;;;;;;;;;4437697;32;19932;-77
2024/03/31 00:41:04;;;;;;;;;;;;;;;;;;4435536;32;19992;-77
2024/03/31 00:43:29;;;;;;;;;;;;;;;;;;4438773;32;19990;-77
2024/03/31 00:45:54;;;;;;;;;;;;;;;;;;4435016;32;19945;-77
2024/03/31 00:48:20;;;;;;;;;;;;;;;;;;4435368;32;19964;-76
2024/03/31 00:50:45;;;;;;;;;;;;;;;;;;4435647;32;19976;-78
2024/03/31 00:53:10;;;;;;;;;;;;;;;;;;4435270;32;19944;-77
2024/03/31 00:55:35;;;;;;;;;;;;;;;;;;4441241;32;19979;-78
2024/03/31 00:58:00;;;;;;;;;;;;;;;;;;4451306;32;19940;-76
2024/03/31 01:00:25;;;;;;;;;;;;;;;;;;4449446;32;20007;-79
2024/03/31 01:02:51;;;;;;;;;;;;;;;;;;4440224;32;19932;-77
2024/03/31 01:05:16;;;;;;;;;;;;;;;;;;4451943;32;19948;-78
2024/03/31 01:07:41;;;;;;;;;;;;;;;;;;4451305;32;19951;-77
2024/03/31 01:10:06;;;;;;;;;;;;;;;;;;4451801;32;20000;-75
2024/03/31 01:12:31;;;;;;;;;;;;;;;;;;4451079;32;19959;-78
2024/03/31 01:14:56;;;;;;;;;;;;;;;;;;4449080;32;19941;-77
2024/03/31 01:17:21;;;;;;;;;;;;;;;;;;4439660;32;20264;-78
2024/03/31 01:19:46;;;;;;;;;;;;;;;;;;4449875;32;19970;-78
2024/03/31 01:22:12;;;;;;;;;;;;;;;;;;4450792;32;19944;-78
2024/03/31 01:24:37;;;;;;;;;;;;;;;;;;4446136;32;20176;-75
2024/03/31 01:27:02;;;;;;;;;;;;;;;;;;4435964;32;20257;-76
2024/03/31 01:29:27;;;;;;;;;;;;;;;;;;4435728;32;20314;-77
2024/03/31 01:31:52;;;;;;;;;;;;;;;;;;4435183;32;19951;-77
2024/03/31 01:34:17;;;;;;;;;;;;;;;;;;4447563;32;19933;-78
2024/03/31 01:36:44;;;;;;;;;;;;;;;;;;4450578;32;19936;-76
2024/03/31 01:39:09;;;;;;;;;;;;;;;;;;4450634;32;19955;-77
2024/03/31 01:41:34;;;;;;;;;;;;;;;;;;4451534;32;19976;-79
2024/03/31 01:43:59;;;;;;;;;;;;;;;;;;4451396;32;19979;-78
2024/03/31 01:46:24;;;;;;;;;;;;;;;;;;4450872;32;19947;-75
2024/03/31 01:48:50;;;;;;;;;;;;;;;;;;4447357;32;19936;-78
2024/03/31 01:51:15;;;;;;;;;;;;;;;;;;4450273;32;19968;-77
2024/03/31 01:53:40;;;;;;;;;;;;;;;;;;4451603;32;19950;-79
2024/03/31 01:56:05;;;;;;;;;;;;;;;;;;4440337;32;19941;-79
2024/03/31 01:58:30;;;;;;;;;;;;;;;;;;4444970;32;19948;-76
2024/03/31 02:00:55;;;;;;;;;;;;;;;;;;4435970;32;19960;-78
2024/03/31 02:03:20;;;;;;;;;;;;;;;;;;4435558;32;19945;-76
2024/03/31 02:05:46;;;;;;;;;;;;;;;;;;4434305;32;19997;-78
2024/03/31 02:08:11;;;;;;;;;;;;;;;;;;4433632;32;19945;-77
2024/03/31 02:10:37;;;;;;;;;;;;;;;;;;4435135;32;20051;-79
2024/03/31 02:13:03;;;;;;;;;;;;;;;;;;4438317;32;19940;-76
2024/03/31 02:15:28;;;;;;;;;;;;;;;;;;4433957;32;20285;-76
2024/03/31 02:17:53;;;;;;;;;;;;;;;;;;4438699;32;19972;-76
2024/03/31 02:20:18;;;;;;;;;;;;;;;;;;4449739;32;19936;-76
2024/03/31 02:22:44;;;;;;;;;;;;;;;;;;4449195;32;19968;-77
2024/03/31 02:25:09;;;;;;;;;;;;;;;;;;4450750;32;20234;-78
2024/03/31 02:27:34;;;;;;;;;;;;;;;;;;4449857;32;20462;-76
2024/03/31 02:29:59;;;;;;;;;;;;;;;;;;4451920;32;19936;-76
2024/03/31 02:32:24;;;;;;;;;;;;;;;;;;4450832;32;19936;-77
2024/03/31 02:34:49;;;;;;;;;;;;;;;;;;4454071;32;19955;-77
2024/03/31 02:37:14;;;;;;;;;;;;;;;;;;4455229;32;20000;-78
2024/03/31 02:39:40;;;;;;;;;;;;;;;;;;4458918;32;19978;-77
2024/03/31 02:42:05;;;;;;;;;;;;;;;;;;4452287;32;20341;-75
2024/03/31 02:44:30;;;;;;;;;;;;;;;;;;4442757;32;19948;-77
2024/03/31 02:46:55;;;;;;;;;;;;;;;;;;4438377;32;19949;-78
2024/03/31 02:49:20;;;;;;;;;;;;;;;;;;4438828;32;20317;-78
2024/03/31 02:51:45;;;;;;;;;;;;;;;;;;4440584;32;19996;-76
2024/03/31 02:54:10;;;;;;;;;;;;;;;;;;4437214;32;19944;-76
2024/03/31 02:56:35;;;;;;;;;;;;;;;;;;4438796;32;19960;-78
2024/03/31 02:59:00;;;;;;;;;;;;;;;;;;4437144;32;20373;-75
2024/03/31 03:01:26;;;;;;;;;;;;;;;;;;4437867;32;19953;-76
2024/03/31 03:03:51;;;;;;;;;;;;;;;;;;4442250;32;19941;-78
2024/03/31 03:06:16;;;;;;;;;;;;;;;;;;4438694;32;19936;-77
2024/03/31 03:08:41;;;;;;;;;;;;;;;;;;4439257;32;19947;-78
2024/03/31 03:11:06;;;;;;;;;;;;;;;;;;4441096;32;19944;-79
2024/03/31 03:13:31;;;;;;;;;;;;;;;;;;4437021;32;19955;-78
2024/03/31 03:15:56;;;;;;;;;;;;;;;;;;4439090;32;19932;-77
2024/03/31 03:18:22;;;;;;;;;;;;;;;;;;4452308;32;19940;-76
2024/03/31 03:20:47;;;;;;;;;;;;;;;;;;4458365;32;19978;-78
2024/03/31 03:23:12;;;;;;;;;;;;;;;;;;4462349;32;19944;-79
2024/03/31 03:25:37;;;;;;;;;;;;;;;;;;4448481;32;19951;-77
2024/03/31 03:28:02;;;;;;;;;;;;;;;;;;4439754;32;19951;-76
2024/03/31 03:30:27;;;;;;;;;;;;;;;;;;4440639;32;19956;-76
2024/03/31 03:32:53;;;;;;;;;;;;;;;;;;4447532;32;19936;-76
2024/03/31 03:35:18;;;;;;;;;;;;;;;;;;4453414;32;19964;-76
2024/03/31 03:37:43;;;;;;;;;;;;;;;;;;4448941;32;19981;-77
2024/03/31 03:40:08;;;;;;;;;;;;;;;;;;4438350;32;20297;-76
2024/03/31 03:42:33;;;;;;;;;;;;;;;;;;4445212;32;19955;-76
2024/03/31 03:44:58;;;;;;;;;;;;;;;;;;4453960;32;19940;-76
2024/03/31 03:47:23;;;;;;;;;;;;;;;;;;4451628;32;20355;-77
2024/03/31 03:49:49;;;;;;;;;;;;;;;;;;4453145;32;20318;-75
2024/03/31 03:52:14;;;;;;;;;;;;;;;;;;4452075;32;19964;-75
2024/03/31 03:54:39;;;;;;;;;;;;;;;;;;4453152;32;19983;-75
2024/03/31 03:57:04;;;;;;;;;;;;;;;;;;4451520;32;19955;-76
2024/03/31 03:59:29;;;;;;;;;;;;;;;;;;4452596;32;19941;-74
2024/03/31 04:01:54;;;;;;;;;;;;;;;;;;4445449;32;19948;-76
2024/03/31 04:04:20;;;;;;;;;;;;;;;;;;4437142;32;20003;-76
2024/03/31 04:06:45;;;;;;;;;;;;;;;;;;4435705;32;19976;-74
2024/03/31 04:09:10;;;;;;;;;;;;;;;;;;4446273;32;19958;-74
2024/03/31 04:11:35;;;;;;;;;;;;;;;;;;4440086;32;20005;-75
2024/03/31 04:14:00;;;;;;;;;;;;;;;;;;4435831;32;19940;-75
2024/03/31 04:16:25;;;;;;;;;;;;;;;;;;4450503;32;19987;-76
2024/03/31 04:18:50;;;;;;;;;;;;;;;;;;4442290;32;19948;-75
2024/03/31 04:21:15;;;;;;;;;;;;;;;;;;4455298;32;19961;-78
2024/03/31 04:23:41;;;;;;;;;;;;;;;;;;4458113;32;19959;-78
2024/03/31 04:26:06;;;;;;;;;;;;;;;;;;4450628;32;20322;-76
2024/03/31 04:28:31;;;;;;;;;;;;;;;;;;4442182;32;19940;-76
2024/03/31 04:30:56;;;;;;;;;;;;;;;;;;4444590;32;19948;-76
2024/03/31 04:33:21;;;;;;;;;;;;;;;;;;4446783;32;19989;-77
2024/03/31 04:35:46;;;;;;;;;;;;;;;;;;4438330;32;19941;-75
2024/03/31 04:38:12;;;;;;;;;;;;;;;;;;4441057;32;19936;-79
2024/03/31 04:40:37;;;;;;;;;;;;;;;;;;4457156;32;19944;-77
2024/03/31 04:43:02;;;;;;;;;;;;;;;;;;4449901;32;19937;-76
2024/03/31 04:45:27;;;;;;;;;;;;;;;;;;4441728;32;19940;-80
2024/03/31 04:47:52;;;;;;;;;;;;;;;;;;4451728;32;19989;-77
2024/03/31 04:50:17;;;;;;;;;;;;;;;;;;4446806;32;20326;-77
2024/03/31 04:52:42;;;;;;;;;;;;;;;;;;4437817;32;19943;-75
2024/03/31 04:55:07;;;;;;;;;;;;;;;;;;4435655;32;19937;-79
2024/03/31 04:57:32;;;;;;;;;;;;;;;;;;4435408;32;19936;-75
2024/03/31 04:59:58;;;;;;;;;;;;;;;;;;4439906;32;20387;-76
2024/03/31 05:02:24;;;;;;;;;;;;;;;;;;4450272;32;19992;-75
2024/03/31 05:04:49;;;;;;;;;;;;;;;;;;4436644;32;19933;-74
2024/03/31 05:07:14;;;;;;;;;;;;;;;;;;4449847;32;19955;-78
2024/03/31 05:09:39;;;;;;;;;;;;;;;;;;4453029;32;19947;-75
2024/03/31 05:12:04;;;;;;;;;;;;;;;;;;4437379;32;19971;-75
2024/03/31 05:14:29;;;;;;;;;;;;;;;;;;4437680;32;19979;-75
2024/03/31 05:16:55;;;;;;;;;;;;;;;;;;4450962;32;19936;-76
2024/03/31 05:19:20;;;;;;;;;;;;;;;;;;4450758;32;19936;-77
2024/03/31 05:21:45;;;;;;;;;;;;;;;;;;4450773;32;19965;-75
2024/03/31 05:24:10;;;;;;;;;;;;;;;;;;4450222;32;19992;-76
2024/03/31 05:26:35;;;;;;;;;;;;;;;;;;4436278;32;19997;-74
2024/03/31 05:29:00;;;;;;;;;;;;;;;;;;4436335;32;19944;-75
2024/03/31 05:31:26;;;;;;;;;;;;;;;;;;4436904;32;19974;-77
2024/03/31 05:33:51;;;;;;;;;;;;;;;;;;4441318;32;19944;-76
2024/03/31 05:36:16;;;;;;;;;;;;;;;;;;4453790;32;19967;-77
2024/03/31 05:38:41;;;;;;;;;;;;;;;;;;4437679;32;19941;-79
2024/03/31 05:41:06;;;;;;;;;;;;;;;;;;4435182;32;19965;-78
2024/03/31 05:43:31;;;;;;;;;;;;;;;;;;4447465;32;19973;-78
2024/03/31 05:45:56;;;;;;;;;;;;;;;;;;4451453;32;19991;-77
2024/03/31 05:48:21;;;;;;;;;;;;;;;;;;4441282;32;20326;-77
2024/03/31 05:50:47;;;;;;;;;;;;;;;;;;4449924;32;19945;-76
2024/03/31 05:53:12;;;;;;;;;;;;;;;;;;4439772;32;20090;-76
2024/03/31 05:55:37;;;;;;;;;;;;;;;;;;4434535;32;19944;-77
2024/03/31 05:58:02;;;;;;;;;;;;;;;;;;4438416;32;19933;-75
2024/03/31 06:00:27;;;;;;;;;;;;;;;;;;4443284;32;19984;-77
2024/03/31 06:02:58;;;;;;;;;;;;;;;;;;4446367;32;19955;-78
2024/03/31 06:05:23;;;;;;;;;;;;;;;;;;4449491;32;19933;-78
2024/03/31 06:07:48;;;;;;;;;;;;;;;;;;4451201;32;19944;-77
2024/03/31 06:10:14;;;;;;;;;;;;;;;;;;4437950;32;19983;-77
2024/03/31 06:12:39;;;;;;;;;;;;;;;;;;4438422;32;19932;-75
2024/03/31 06:15:04;;;;;;;;;;;;;;;;;;4450941;32;19986;-78
2024/03/31 06:17:29;;;;;;;;;;;;;;;;;;4449920;32;20254;-75
2024/03/31 06:19:54;;;;;;;;;;;;;;;;;;4438253;32;20001;-77
2024/03/31 06:22:19;;;;;;;;;;;;;;;;;;4449333;32;19944;-76
2024/03/31 06:24:44;;;;;;;;;;;;;;;;;;4449016;32;19977;-75
2024/03/31 06:27:11;;;;;;;;;;;;;;;;;;4446653;32;19945;-74
2024/03/31 06:29:36;;;;;;;;;;;;;;;;;;4442943;32;19955;-76
2024/03/31 06:32:01;;;;;;;;;;;;;;;;;;4452975;32;19940;-78
2024/03/31 06:34:26;;;;;;;;;;;;;;;;;;4450806;32;20301;-77
2024/03/31 06:36:51;;;;;;;;;;;;;;;;;;4450972;32;19949;-76
2024/03/31 06:39:17;;;;;;;;;;;;;;;;;;4450328;32;19941;-76
2024/03/31 06:41:42;;;;;;;;;;;;;;;;;;4449619;32;20359;-75
2024/03/31 06:44:07;;;;;;;;;;;;;;;;;;4435617;32;19933;-77
2024/03/31 06:46:32;;;;;;;;;;;;;;;;;;4437523;32;19945;-75
2024/03/31 06:48:57;;;;;;;;;;;;;;;;;;4444708;32;19975;-75
2024/03/31 06:51:24;;;;;;;;;;;;;;;;;;4444584;32;19937;-76
2024/03/31 06:53:50;;;;;;;;;;;;;;;;;;4440033;32;19967;-77
2024/03/31 06:56:15;;;;;;;;;;;;;;;;;;4440700;32;19976;-74
2024/03/31 06:58:40;;;;;;;;;;;;;;;;;;4444620;32;20321;-77
2024/03/31 07:01:05;;;;;;;;;;;;;;;;;;4439935;32;19972;-78
2024/03/31 07:03:32;;;;;;;;;;;;;;;;;;4451964;32;19992;-79
2024/03/31 07:05:57;;;;;;;;;;;;;;;;;;4456681;32;19943;-77
2024/03/31 07:08:22;;;;;;;;;;;;;;;;;;4442119;32;19956;-79
2024/03/31 07:10:47;;;;;;;;;;;;;;;;;;4438211;32;19941;-76
2024/03/31 07:13:12;;;;;;;;;;;;;;;;;;4448936;32;19966;-76
2024/03/31 07:15:37;;;;;;;;;;;;;;;;;;4446577;32;20334;-77
2024/03/31 07:18:02;;;;;;;;;;;;;;;;;;4438366;32;19984;-76
2024/03/31 07:20:27;;;;;;;;;;;;;;;;;;4439417;32;19963;-77
2024/03/31 07:22:53;;;;;;;;;;;;;;;;;;4437728;32;19936;-76
2024/03/31 07:25:18;;;;;;;;;;;;;;;;;;4438132;32;20325;-77
2024/03/31 07:27:43;;;;;;;;;;;;;;;;;;4453914;32;19936;-76
2024/03/31 07:30:08;;;;;;;;;;;;;;;;;;4446565;32;19976;-78
2024/03/31 07:32:36;;;;;;;;;;;;;;;;;;4437044;32;20306;-78
2024/03/31 07:35:01;;;;;;;;;;;;;;;;;;4437519;32;19937;-76
2024/03/31 07:37:26;;;;;;;;;;;;;;;;;;4437435;32;19945;-76
2024/03/31 07:39:51;;;;;;;;;;;;;;;;;;4438280;32;19997;-76
2024/03/31 07:42:17;;;;;;;;;;;;;;;;;;4437440;32;20015;-76
2024/03/31 07:44:42;;;;;;;;;;;;;;;;;;4441286;32;19936;-77
2024/03/31 07:47:07;;;;;;;;;;;;;;;;;;4454770;32;19937;-77
2024/03/31 07:49:32;;;;;;;;;;;;;;;;;;4447289;32;19936;-76
2024/03/31 07:51:57;;;;;;;;;;;;;;;;;;4437928;32;19941;-77
2024/03/31 07:54:22;;;;;;;;;;;;;;;;;;4436431;32;20048;-75
2024/03/31 07:56:48;;;;;;;;;;;;;;;;;;4438006;32;19940;-76
2024/03/31 07:59:13;;;;;;;;;;;;;;;;;;4445792;32;19947;-75
2024/03/31 08:01:38;;;;;;;;;;;;;;;;;;4446490;32;19959;-76
2024/03/31 08:04:03;;;;;;;;;;;;;;;;;;4437677;32;20290;-76
2024/03/31 08:06:28;;;;;;;;;;;;;;;;;;4436036;32;19992;-76
2024/03/31 08:08:53;;;;;;;;;;;;;;;;;;4445004;32;19936;-76
2024/03/31 08:11:19;;;;;;;;;;;;;;;;;;4451605;32;19936;-76
2024/03/31 08:13:44;;;;;;;;;;;;;;;;;;4451409;32;20073;-76
2024/03/31 08:16:09;;;;;;;;;;;;;;;;;;4451483;32;19970;-77
2024/03/31 08:18:35;;;;;;;;;;;;;;;;;;4451570;32;19956;-76
2024/03/31 08:21:00;;;;;;;;;;;;;;;;;;4451576;32;19932;-77
2024/03/31 08:23:25;;;;;;;;;;;;;;;;;;4453128;32;19979;-77
2024/03/31 08:25:50;;;;;;;;;;;;;;;;;;4451551;32;20004;-75
2024/03/31 08:28:15;;;;;;;;;;;;;;;;;;4451104;32;19980;-77
2024/03/31 08:30:40;;;;;;;;;;;;;;;;;;4452618;32;19968;-78
2024/03/31 08:33:06;;;;;;;;;;;;;;;;;;4453574;32;19936;-76
2024/03/31 08:35:31;;;;;;;;;;;;;;;;;;4454218;32;19967;-76
2024/03/31 08:37:56;;;;;;;;;;;;;;;;;;4453034;32;19943;-77
2024/03/31 08:40:21;;;;;;;;;;;;;;;;;;4451604;32;19936;-75
2024/03/31 08:42:46;;;;;;;;;;;;;;;;;;4451118;32;19940;-76
2024/03/31 08:45:11;;;;;;;;;;;;;;;;;;4452215;32;19948;-78
2024/03/31 08:47:36;;;;;;;;;;;;;;;;;;4451901;32;19995;-77
2024/03/31 08:50:02;;;;;;;;;;;;;;;;;;4446037;32;19941;-76
2024/03/31 08:52:27;;;;;;;;;;;;;;;;;;4444481;32;19988;-75
2024/03/31 08:54:52;;;;;;;;;;;;;;;;;;4449855;32;19945;-77
2024/03/31 08:57:17;;;;;;;;;;;;;;;;;;4445240;32;19941;-76
2024/03/31 08:59:42;;;;;;;;;;;;;;;;;;4435371;32;19936;-77
2024/03/31 09:02:07;;;;;;;;;;;;;;;;;;4442595;32;20305;-74
2024/03/31 09:04:32;;;;;;;;;;;;;;;;;;4442146;32;19948;-76
2024/03/31 09:06:57;;;;;;;;;;;;;;;;;;4442377;32;19950;-76
2024/03/31 09:09:23;;;;;;;;;;;;;;;;;;4450221;32;19947;-76
2024/03/31 09:11:48;;;;;;;;;;;;;;;;;;4436031;32;19982;-76
2024/03/31 09:14:13;;;;;;;;;;;;;;;;;;4439722;32;19940;-77
2024/03/31 09:16:38;;;;;;;;;;;;;;;;;;4450643;32;19936;-77
2024/03/31 09:19:03;;;;;;;;;;;;;;;;;;4450641;32;19991;-77
2024/03/31 09:21:29;;;;;;;;;;;;;;;;;;4450611;32;19932;-76
2024/03/31 09:23:54;;;;;;;;;;;;;;;;;;4451894;32;19980;-75
2024/03/31 09:26:19;;;;;;;;;;;;;;;;;;4451520;32;20347;-77
2024/03/31 09:28:44;;;;;;;;;;;;;;;;;;4450608;32;20345;-77
2024/03/31 09:31:09;;;;;;;;;;;;;;;;;;4450539;32;19936;-78
2024/03/31 09:33:37;;;;;;;;;;;;;;;;;;4445995;32;19971;-76
2024/03/31 09:36:02;;;;;;;;;;;;;;;;;;4435135;32;19933;-77
2024/03/31 09:38:27;;;;;;;;;;;;;;;;;;4440448;32;19936;-76
2024/03/31 09:40:52;;;;;;;;;;;;;;;;;;4449835;32;19937;-75
2024/03/31 09:43:17;;;;;;;;;;;;;;;;;;4450682;32;19937;-74
2024/03/31 09:45:43;;;;;;;;;;;;;;;;;;4450286;32;19963;-77
2024/03/31 09:48:11;;;;;;;;;;;;;;;;;;4450353;32;20286;-77
2024/03/31 09:50:37;;;;;;;;;;;;;;;;;;4451815;32;19941;-77
2024/03/31 09:53:02;;;;;;;;;;;;;;;;;;4450180;32;19936;-75
2024/03/31 09:55:28;;;;;;;;;;;;;;;;;;4450074;32;19936;-76
2024/03/31 09:57:53;;;;;;;;;;;;;;;;;;4450301;32;20328;-78
2024/03/31 10:00:18;;;;;;;;;;;;;;;;;;4444044;32;20276;-77
2024/03/31 10:02:43;;;;;;;;;;;;;;;;;;4446220;32;20383;-76
2024/03/31 10:05:08;;;;;;;;;;;;;;;;;;4452334;32;19947;-78
2024/03/31 10:07:33;;;;;;;;;;;;;;;;;;4450345;32;19947;-76
2024/03/31 10:09:58;;;;;;;;;;;;;;;;;;4440275;32;19959;-77
2024/03/31 10:12:23;;;;;;;;;;;;;;;;;;4434479;32;20318;-78
2024/03/31 10:14:49;;;;;;;;;;;;;;;;;;4436133;32;19941;-78
2024/03/31 10:17:14;;;;;;;;;;;;;;;;;;4434762;32;19936;-78
2024/03/31 10:19:39;;;;;;;;;;;;;;;;;;4440918;32;19936;-80
2024/03/31 10:22:04;;;;;;;;;;;;;;;;;;4452023;32;19946;-79
2024/03/31 10:24:29;;;;;;;;;;;;;;;;;;4439654;32;19987;-77
2024/03/31 10:26:55;;;;;;;;;;;;;;;;;;4451747;32;19981;-79
2024/03/31 10:29:20;;;;;;;;;;;;;;;;;;4450285;32;19944;-77
2024/03/31 10:31:45;;;;;;;;;;;;;;;;;;4449348;32;19952;-79
2024/03/31 10:34:10;;;;;;;;;;;;;;;;;;4435752;32;19948;-79
2024/03/31 10:36:35;;;;;;;;;;;;;;;;;;4436659;32;19987;-77
2024/03/31 10:39:00;;;;;;;;;;;;;;;;;;4448126;32;19944;-78
2024/03/31 10:41:25;;;;;;;;;;;;;;;;;;4440958;32;20004;-77
2024/03/31 10:43:51;;;;;;;;;;;;;;;;;;4438825;32;19936;-80
2024/03/31 10:46:16;;;;;;;;;;;;;;;;;;4443406;32;19951;-77
2024/03/31 10:48:41;;;;;;;;;;;;;;;;;;4436303;32;19996;-79
2024/03/31 10:51:06;;;;;;;;;;;;;;;;;;4439620;32;19981;-78
2024/03/31 10:53:31;;;;;;;;;;;;;;;;;;4451834;32;19979;-80
2024/03/31 10:55:56;;;;;;;;;;;;;;;;;;4454524;32;19936;-78
2024/03/31 10:58:21;;;;;;;;;;;;;;;;;;4451755;32;19974;-77
2024/03/31 11:00:46;;;;;;;;;;;;;;;;;;4439315;32;19966;-80
2024/03/31 11:03:11;;;;;;;;;;;;;;;;;;4440042;32;20100;-78
2024/03/31 11:05:37;;;;;;;;;;;;;;;;;;4439419;32;19940;-76
2024/03/31 11:08:02;;;;;;;;;;;;;;;;;;4447170;32;19947;-78
2024/03/31 11:10:27;;;;;;;;;;;;;;;;;;4455427;32;20021;-78
2024/03/31 11:12:53;;;;;;;;;;;;;;;;;;4459853;32;19972;-80
2024/03/31 11:15:18;;;;;;;;;;;;;;;;;;4461788;32;20270;-82
2024/03/31 11:17:43;;;;;;;;;;;;;;;;;;4459733;32;19936;-82
2024/03/31 11:20:08;;;;;;;;;;;;;;;;;;4440473;32;19951;-78
2024/03/31 11:22:34;;;;;;;;;;;;;;;;;;4438948;32;20313;-78
2024/03/31 11:24:59;;;;;;;;;;;;;;;;;;4438296;32;20287;-81
2024/03/31 11:27:24;;;;;;;;;;;;;;;;;;4443803;32;19944;-79
2024/03/31 11:29:49;;;;;;;;;;;;;;;;;;4447076;32;19959;-78
2024/03/31 11:32:15;;;;;;;;;;;;;;;;;;4453689;32;19976;-79
2024/03/31 11:34:40;;;;;;;;;;;;;;;;;;4440747;32;19984;-78
2024/03/31 11:37:05;;;;;;;;;;;;;;;;;;4445959;32;19991;-77
2024/03/31 11:39:30;;;;;;;;;;;;;;;;;;4445047;32;19933;-77
2024/03/31 11:41:55;;;;;;;;;;;;;;;;;;4445916;32;20036;-76
2024/03/31 11:44:20;;;;;;;;;;;;;;;;;;4454336;32;19996;-78
2024/03/31 11:46:46;;;;;;;;;;;;;;;;;;4446643;32;20362;-80
2024/03/31 11:49:11;;;;;;;;;;;;;;;;;;4439560;32;19948;-79
2024/03/31 11:51:40;;;;;;;;;;;;;;;;;;4436871;32;19949;-79
2024/03/31 11:54:05;;;;;;;;;;;;;;;;;;4437612;32;19972;-78
2024/03/31 11:56:30;;;;;;;;;;;;;;;;;;4452694;32;19936;-79
2024/03/31 11:58:55;;;;;;;;;;;;;;;;;;4442529;32;20312;-80
2024/03/31 12:01:22;;;;;;;;;;;;;;;;;;4436589;32;20339;-79
2024/03/31 12:03:47;;;;;;;;;;;;;;;;;;4437332;32;20035;-78
2024/03/31 12:06:13;;;;;;;;;;;;;;;;;;4441680;32;19937;-76
2024/03/31 12:08:38;;;;;;;;;;;;;;;;;;4439170;32;19933;-79
2024/03/31 12:11:03;;;;;;;;;;;;;;;;;;4438735;32;19937;-76
2024/03/31 12:13:28;;;;;;;;;;;;;;;;;;4440321;32;19941;-76
2024/03/31 12:15:53;;;;;;;;;;;;;;;;;;4437892;32;20325;-80
2024/03/31 12:18:18;;;;;;;;;;;;;;;;;;4437589;32;20350;-78
2024/03/31 12:20:43;;;;;;;;;;;;;;;;;;4441996;32;19941;-77
2024/03/31 12:23:08;;;;;;;;;;;;;;;;;;4452543;32;20311;-77
2024/03/31 12:25:38;;;;;;;;;;;;;;;;;;4443575;32;19945;-78
2024/03/31 12:28:03;;;;;;;;;;;;;;;;;;4436828;32;19933;-76
2024/03/31 12:30:47;;;;;;;;;;;;;;;;;;4436205;32;19994;-79
2024/03/31 12:33:15;;;;;;;;;;;;;;;;;;4445673;32;19929;-79
2024/03/31 12:35:40;;;;;;;;;;;;;;;;;;4450847;32;20277;-80
2024/03/31 12:38:05;;;;;;;;;;;;;;;;;;4450126;32;19960;-80
2024/03/31 12:40:31;;;;;;;;;;;;;;;;;;4450879;32;19943;-81
2024/03/31 12:42:56;;;;;;;;;;;;;;;;;;4451027;32;20268;-81
2024/03/31 12:45:21;;;;;;;;;;;;;;;;;;4450991;32;19940;-83
2024/03/31 12:48:08;;;;;;;;;;;;;;;;;;;;;
2024/03/31 12:50:38;;;;;;;;;;;;;;;;;;4443335;32;19963;-84
2024/03/31 12:53:03;;;;;;;;;;;;;;;;;;4437276;32;19945;-84
2024/03/31 12:55:28;;;;;;;;;;;;;;;;;;4443750;32;19945;-84
2024/03/31 12:57:53;;;;;;;;;;;;;;;;;;4436724;32;19955;-82
2024/03/31 13:00:18;;;;;;;;;;;;;;;;;;4446531;32;19979;-81
2024/03/31 13:02:44;;;;;;;;;;;;;;;;;;4452656;32;19940;-79
2024/03/31 13:05:09;;;;;;;;;;;;;;;;;;4454835;32;19937;-80
2024/03/31 13:07:34;;;;;;;;;;;;;;;;;;4444090;32;20261;-81
2024/03/31 13:09:59;;;;;;;;;;;;;;;;;;4448478;32;19954;-79
2024/03/31 13:12:24;;;;;;;;;;;;;;;;;;4446918;32;19997;-78
2024/03/31 13:14:49;;;;;;;;;;;;;;;;;;4451704;32;19941;-79
2024/03/31 13:17:14;;;;;;;;;;;;;;;;;;4452455;32;19972;-79
2024/03/31 13:19:39;;;;;;;;;;;;;;;;;;4451730;32;20376;-79
2024/03/31 13:22:05;;;;;;;;;;;;;;;;;;4444112;32;19936;-80
2024/03/31 13:24:32;;;;;;;;;;;;;;;;;;4443628;32;19937;-78
2024/03/31 13:26:57;;;;;;;;;;;;;;;;;;4451190;32;19937;-78
2024/03/31 13:29:22;;;;;;;;;;;;;;;;;;4452852;32;19983;-78
2024/03/31 13:31:47;;;;;;;;;;;;;;;;;;4451175;32;19936;-78
2024/03/31 13:34:12;;;;;;;;;;;;;;;;;;4442457;32;19955;-78
2024/03/31 13:36:39;;;;;;;;;;;;;;;;;;4434938;32;19936;-79
2024/03/31 13:39:04;;;;;;;;;;;;;;;;;;4435704;32;19933;-78
2024/03/31 13:41:30;;;;;;;;;;;;;;;;;;4434994;32;19941;-80
2024/03/31 13:43:55;;;;;;;;;;;;;;;;;;4439166;32;20332;-78
2024/03/31 13:46:20;;;;;;;;;;;;;;;;;;4449741;32;19936;-78
2024/03/31 13:48:45;;;;;;;;;;;;;;;;;;4451608;32;20072;-79
2024/03/31 13:51:10;;;;;;;;;;;;;;;;;;4449693;32;20072;-79
2024/03/31 13:53:35;;;;;;;;;;;;;;;;;;4448412;32;20011;-79
2024/03/31 13:56:01;;;;;;;;;;;;;;;;;;4436081;32;19996;-78
2024/03/31 13:58:26;;;;;;;;;;;;;;;;;;4444204;32;19940;-79
2024/03/31 14:00:51;;;;;;;;;;;;;;;;;;4436321;32;19959;-79
2024/03/31 14:03:16;;;;;;;;;;;;;;;;;;4434838;32;20107;-77
2024/03/31 14:05:41;;;;;;;;;;;;;;;;;;4436463;32;20041;-78
2024/03/31 14:08:06;;;;;;;;;;;;;;;;;;4442102;32;19984;-78
2024/03/31 14:10:32;;;;;;;;;;;;;;;;;;4435513;32;20270;-77
2024/03/31 14:12:58;;;;;;;;;;;;;;;;;;4443214;32;19964;-79
2024/03/31 14:15:23;;;;;;;;;;;;;;;;;;4434630;32;19933;-77
2024/03/31 14:17:49;;;;;;;;;;;;;;;;;;4436470;32;20302;-78
2024/03/31 14:20:14;;;;;;;;;;;;;;;;;;4439804;32;19944;-77
2024/03/31 14:22:39;;;;;;;;;;;;;;;;;;4444732;32;19982;-77
2024/03/31 14:25:04;;;;;;;;;;;;;;;;;;4462281;32;20016;-77
2024/03/31 14:27:29;;;;;;;;;;;;;;;;;;4457041;32;19936;-77
2024/03/31 14:29:54;;;;;;;;;;;;;;;;;;4452868;32;19982;-78
2024/03/31 14:32:20;;;;;;;;;;;;;;;;;;4450598;32;19936;-77
2024/03/31 14:34:45;;;;;;;;;;;;;;;;;;4437330;32;20028;-76
2024/03/31 14:37:10;;;;;;;;;;;;;;;;;;4434676;32;19952;-77
2024/03/31 14:39:35;;;;;;;;;;;;;;;;;;4449749;32;19936;-78
2024/03/31 14:42:00;;;;;;;;;;;;;;;;;;4451529;32;19971;-77
2024/03/31 14:44:26;;;;;;;;;;;;;;;;;;4452281;32;19968;-77
2024/03/31 14:46:51;;;;;;;;;;;;;;;;;;4438398;32;19943;-77
2024/03/31 14:49:16;;;;;;;;;;;;;;;;;;4436498;32;19968;-77
2024/03/31 14:51:41;;;;;;;;;;;;;;;;;;4435156;32;19948;-77
2024/03/31 14:54:06;;;;;;;;;;;;;;;;;;4450382;32;19936;-79
2024/03/31 14:56:31;;;;;;;;;;;;;;;;;;4451953;32;19951;-77
2024/03/31 14:58:56;;;;;;;;;;;;;;;;;;4436544;32;19933;-76
2024/03/31 15:01:21;;;;;;;;;;;;;;;;;;4440145;32;19936;-77
2024/03/31 15:03:47;;;;;;;;;;;;;;;;;;4451974;32;20000;-76
2024/03/31 15:06:12;;;;;;;;;;;;;;;;;;4447311;32;19971;-76
2024/03/31 15:08:37;;;;;;;;;;;;;;;;;;4438550;32;20001;-77
2024/03/31 15:11:02;;;;;;;;;;;;;;;;;;4435943;32;19948;-77
2024/03/31 15:13:27;;;;;;;;;;;;;;;;;;4435560;32;20000;-78
2024/03/31 15:15:52;;;;;;;;;;;;;;;;;;4434509;32;19955;-77
2024/03/31 15:18:17;;;;;;;;;;;;;;;;;;4436249;32;20005;-77
2024/03/31 15:20:44;;;;;;;;;;;;;;;;;;4435499;32;19937;-78
2024/03/31 15:23:09;;;;;;;;;;;;;;;;;;4438360;32;19944;-77
2024/03/31 15:25:34;;;;;;;;;;;;;;;;;;4453137;32;20051;-78
2024/03/31 15:27:59;;;;;;;;;;;;;;;;;;4451174;32;20348;-78
2024/03/31 15:30:24;;;;;;;;;;;;;;;;;;4449849;32;19979;-79
2024/03/31 15:32:49;;;;;;;;;;;;;;;;;;4440478;32;19956;-77
2024/03/31 15:35:14;;;;;;;;;;;;;;;;;;4444743;32;19995;-77
2024/03/31 15:37:39;;;;;;;;;;;;;;;;;;4455362;32;19967;-77
2024/03/31 15:40:05;;;;;;;;;;;;;;;;;;4455970;32;20498;-77
2024/03/31 15:42:30;;;;;;;;;;;;;;;;;;4441692;32;19932;-77
2024/03/31 15:44:55;;;;;;;;;;;;;;;;;;4441067;32;19952;-78
2024/03/31 15:47:20;;;;;;;;;;;;;;;;;;4439552;32;19993;-76
2024/03/31 15:49:45;;;;;;;;;;;;;;;;;;4439999;32;19941;-78
2024/03/31 15:52:10;;;;;;;;;;;;;;;;;;4436226;32;20003;-77
2024/03/31 15:54:35;;;;;;;;;;;;;;;;;;4450171;32;19987;-77
2024/03/31 15:57:02;;;;;;;;;;;;;;;;;;4452860;32;19970;-77
2024/03/31 15:59:27;;;;;;;;;;;;;;;;;;4441666;32;19933;-75
2024/03/31 16:01:53;;;;;;;;;;;;;;;;;;4444892;32;20300;-67
2024/03/31 16:04:18;;;;;;;;;;;;;;;;;;4437137;32;20267;-69
2024/03/31 16:06:43;;;;;;;;;;;;;;;;;;4438186;32;19952;-71
2024/03/31 16:09:08;;;;;;;;;;;;;;;;;;4436635;32;19947;-70
2024/03/31 16:11:33;;;;;;;;;;;;;;;;;;4446607;32;20334;-71
2024/03/31 16:13:58;;;;;;;;;;;;;;;;;;4451027;32;19948;-72
2024/03/31 16:16:23;;;;;;;;;;;;;;;;;;4444896;32;19947;-72
2024/03/31 16:18:49;;;;;;;;;;;;;;;;;;4450656;32;19989;-72
2024/03/31 16:21:15;;;;;;;;;;;;;;;;;;4451991;32;19954;-72
2024/03/31 16:23:40;;;;;;;;;;;;;;;;;;4450086;32;19936;-72
2024/03/31 16:26:05;;;;;;;;;;;;;;;;;;4441301;32;20018;-72
2024/03/31 16:28:30;;;;;;;;;;;;;;;;;;4436676;32;19937;-73
2024/03/31 16:30:55;;;;;;;;;;;;;;;;;;4435564;32;20360;-73
2024/03/31 16:33:20;;;;;;;;;;;;;;;;;;4451125;32;20317;-75